createdAt,value
2022-12-08T00:03:27.497Z,93.44
2022-12-08T00:08:47.989Z,93.83
2022-12-08T00:13:49.643Z,93.66
2022-12-08T00:18:51.327Z,93.41
2022-12-08T00:23:55.368Z,93.63
2022-12-08T00:28:57.023Z,93.76
2022-12-08T00:33:58.985Z,92.85
2022-12-08T00:39:00.909Z,93.14
2022-12-08T00:44:02.569Z,92.85
2022-12-08T00:49:04.906Z,93.11
2022-12-08T00:54:07.149Z,93.28
2022-12-08T00:59:08.858Z,93.97
2022-12-08T01:04:15.511Z,93.87
2022-12-08T01:09:18.295Z,93.57
2022-12-08T01:14:20.008Z,94.38
2022-12-08T01:19:21.678Z,95.05
2022-12-08T01:24:23.378Z,94.64
2022-12-08T01:29:26.362Z,95.39
2022-12-08T01:34:28.028Z,95.37
2022-12-08T01:39:30.734Z,95.94
2022-12-08T01:44:32.362Z,95.57
2022-12-08T01:49:36.413Z,95.66
2022-12-08T01:54:47.896Z,95.99
2022-12-08T02:00:08.196Z,96.55
2022-12-08T02:05:11.835Z,95.91
2022-12-08T02:10:19.855Z,96.20
2022-12-08T02:15:31.943Z,95.83
2022-12-08T02:20:45.844Z,95.63
2022-12-08T02:26:08.321Z,95.69
2022-12-08T02:31:44.288Z,95.92
2022-12-08T02:37:09.820Z,95.48
2022-12-08T02:42:32.892Z,94.79
2022-12-08T02:47:35.392Z,94.72
2022-12-08T02:52:47.649Z,94.44
2022-12-08T02:58:05.683Z,93.92
2022-12-08T03:03:07.366Z,94.41
2022-12-08T03:08:16.969Z,94.64
2022-12-08T03:13:25.559Z,94.91
2022-12-08T03:18:31.961Z,94.98
2022-12-08T03:23:36.932Z,94.23
2022-12-08T03:28:39.695Z,93.53
2022-12-08T03:33:45.499Z,93.39
2022-12-08T03:38:52.438Z,93.67
2022-12-08T03:43:59.405Z,93.11
2022-12-08T03:49:01.113Z,92.62
2022-12-08T03:54:02.795Z,93.40
2022-12-08T03:59:05.770Z,93.51
2022-12-08T04:04:07.422Z,94.94
2022-12-08T04:09:09.444Z,94.96
2022-12-08T04:14:11.113Z,95.10
2022-12-08T04:19:12.779Z,96.00
2022-12-08T04:24:14.454Z,95.74
2022-12-08T04:29:16.672Z,96.75
2022-12-08T04:34:18.346Z,97.40
2022-12-08T04:39:19.994Z,97.42
2022-12-08T04:44:21.673Z,98.34
2022-12-08T04:49:23.699Z,99.40
2022-12-08T04:54:25.402Z,100.00
2022-12-08T04:59:27.057Z,100.00
2022-12-08T05:04:28.739Z,100.00
2022-12-08T05:09:30.443Z,100.00
2022-12-08T05:14:32.122Z,100.00
2022-12-08T05:19:33.798Z,100.00
2022-12-08T05:24:35.702Z,99.66
2022-12-08T05:29:37.385Z,99.08
2022-12-08T05:34:39.057Z,97.78
2022-12-08T05:39:40.757Z,96.90
2022-12-08T05:44:42.412Z,96.78
2022-12-08T05:49:44.139Z,95.73
2022-12-08T05:54:45.816Z,96.29
2022-12-08T05:59:47.473Z,96.08
2022-12-08T06:04:49.277Z,95.31
2022-12-08T06:09:51.000Z,95.21
2022-12-08T06:14:52.703Z,95.60
2022-12-08T06:19:54.360Z,95.48
2022-12-08T06:24:56.031Z,94.66
2022-12-08T06:29:57.852Z,94.61
2022-12-08T06:34:59.520Z,93.83
2022-12-08T06:40:01.416Z,93.85
2022-12-08T06:45:03.833Z,94.22
2022-12-08T06:50:07.773Z,95.10
2022-12-08T06:55:09.974Z,95.42
2022-12-08T07:00:12.352Z,95.30
2022-12-08T07:05:14.113Z,96.07
2022-12-08T07:10:15.796Z,96.18
2022-12-08T07:15:17.590Z,97.73
2022-12-08T07:20:19.292Z,98.52
2022-12-08T07:25:21.451Z,99.22
2022-12-08T07:30:23.199Z,99.88
2022-12-08T07:35:24.887Z,100.00
2022-12-08T07:40:26.612Z,99.85
2022-12-08T07:45:31.421Z,100.00
2022-12-08T07:50:34.111Z,99.40
2022-12-08T07:55:40.510Z,98.39
2022-12-08T08:00:42.225Z,98.32
2022-12-08T08:05:49.272Z,97.99
2022-12-08T08:10:50.987Z,97.27
2022-12-08T08:15:52.759Z,96.31
2022-12-08T08:20:54.454Z,95.88
2022-12-08T08:25:59.537Z,95.60
2022-12-08T08:31:02.054Z,95.20
2022-12-08T08:36:08.265Z,94.54
2022-12-08T08:41:11.533Z,94.04
2022-12-08T08:46:13.251Z,94.02
2022-12-08T08:51:15.304Z,93.47
2022-12-08T08:56:19.466Z,93.29
2022-12-08T09:01:27.658Z,93.22
2022-12-08T09:06:29.480Z,93.40
2022-12-08T09:11:32.411Z,93.36
2022-12-08T09:16:38.935Z,93.42
2022-12-08T09:21:43.565Z,92.80
2022-12-08T09:26:45.781Z,91.96
2022-12-08T09:31:47.587Z,91.11
2022-12-08T09:36:49.298Z,90.79
2022-12-08T09:41:58.655Z,89.90
2022-12-08T09:47:03.484Z,89.47
2022-12-08T09:52:12.166Z,88.11
2022-12-08T09:57:19.307Z,87.41
2022-12-08T10:02:25.617Z,86.73
2022-12-08T10:07:39.551Z,85.10
2022-12-08T10:13:08.123Z,79.30
2022-12-08T10:18:19.964Z,79.35
2022-12-08T10:23:30.231Z,80.66
2022-12-08T10:28:33.628Z,80.06
2022-12-08T10:33:35.348Z,80.52
2022-12-08T10:38:39.223Z,80.69
2022-12-08T10:44:01.846Z,80.86
2022-12-08T10:49:03.475Z,80.35
2022-12-08T10:54:06.640Z,79.56
2022-12-08T10:59:16.508Z,77.28
2022-12-08T11:04:25.192Z,76.63
2022-12-08T11:09:39.917Z,73.15
2022-12-08T11:14:44.573Z,75.74
2022-12-08T11:20:02.104Z,76.84
2022-12-08T11:25:17.934Z,77.30
2022-12-08T11:30:25.200Z,78.24
2022-12-08T11:35:30.851Z,77.31
2022-12-08T11:40:37.542Z,77.24
2022-12-08T11:45:41.133Z,76.43
2022-12-08T11:51:09.473Z,74.40
2022-12-08T11:56:20.069Z,74.30
2022-12-08T12:01:26.622Z,74.12
2022-12-08T12:07:05.387Z,75.36
2022-12-08T12:12:22.124Z,74.86
2022-12-08T12:17:26.552Z,69.49
2022-12-08T12:22:34.340Z,67.39
2022-12-08T12:27:40.596Z,66.94
2022-12-08T12:32:51.757Z,63.75
2022-12-08T12:37:59.446Z,62.68
2022-12-08T12:43:01.065Z,68.33
2022-12-08T12:48:02.850Z,71.80
2022-12-08T12:53:09.272Z,73.10
2022-12-08T12:58:27.419Z,72.89
2022-12-08T13:03:29.129Z,69.65
2022-12-08T13:08:31.456Z,72.34
2022-12-08T13:13:33.558Z,74.49
2022-12-08T13:18:39.825Z,75.18
2022-12-08T13:23:44.093Z,77.25
2022-12-08T13:29:13.065Z,76.12
2022-12-08T13:34:14.705Z,76.80
2022-12-08T13:39:32.485Z,76.87
2022-12-08T13:45:19.819Z,76.86
2022-12-08T13:51:23.537Z,78.45
2022-12-08T14:01:22.056Z,80.35
2022-12-08T14:06:46.097Z,79.89
2022-12-08T14:11:54.911Z,79.82
2022-12-08T14:17:06.000Z,80.85
2022-12-08T14:22:17.855Z,81.24
2022-12-08T14:27:23.335Z,81.62
2022-12-08T14:32:43.421Z,81.82
2022-12-08T14:37:48.718Z,82.45
2022-12-08T14:43:05.191Z,83.80
2022-12-08T14:48:38.887Z,83.04
2022-12-08T14:54:13.231Z,83.09
2022-12-08T14:59:19.863Z,84.06
2022-12-08T15:04:27.045Z,85.03
2022-12-08T15:09:34.939Z,84.82
2022-12-08T15:14:38.592Z,84.48
2022-12-08T15:19:40.333Z,87.03
2022-12-08T15:24:42.041Z,85.92
2022-12-08T15:29:43.906Z,83.58
2022-12-08T15:34:45.589Z,83.29
2022-12-08T15:39:47.567Z,83.13
2022-12-08T15:44:49.248Z,84.28
2022-12-08T15:49:52.993Z,83.80
2022-12-08T15:54:54.897Z,84.32
2022-12-08T15:59:58.830Z,85.32
2022-12-08T16:05:40.316Z,84.88
2022-12-08T16:10:25.166Z,84.00
2022-12-08T16:31:41.684Z,83.95
2022-12-08T16:36:43.464Z,82.58
2022-12-08T16:42:03.471Z,83.05
2022-12-08T16:47:09.300Z,83.77
2022-12-08T16:52:11.221Z,83.22
2022-12-08T16:57:12.886Z,84.17
2022-12-08T17:02:16.533Z,83.68
2022-12-08T17:07:18.494Z,83.66
2022-12-08T17:12:20.186Z,83.54
2022-12-08T17:17:21.886Z,84.63
2022-12-08T17:22:23.616Z,84.35
2022-12-08T17:27:25.357Z,84.19
2022-12-08T17:32:27.223Z,82.97
2022-12-08T17:37:29.245Z,83.63
2022-12-08T17:42:30.903Z,83.32
2022-12-08T17:47:32.655Z,82.84
2022-12-08T17:52:34.355Z,83.51
2022-12-08T17:57:36.117Z,83.28
2022-12-08T18:02:38.058Z,83.76
2022-12-08T18:07:39.862Z,83.39
2022-12-08T18:12:42.142Z,84.03
2022-12-08T18:17:43.927Z,83.12
2022-12-08T18:22:45.783Z,83.54
2022-12-08T18:27:47.864Z,83.38
2022-12-08T18:32:54.184Z,83.21
2022-12-08T18:38:00.225Z,82.87
2022-12-08T18:43:01.919Z,83.12
2022-12-08T18:48:03.909Z,83.17
2022-12-08T18:53:05.584Z,83.05
2022-12-08T18:58:07.259Z,82.16
2022-12-08T19:03:09.220Z,82.52
2022-12-08T19:08:11.058Z,82.86
2022-12-08T19:13:12.791Z,82.32
2022-12-08T19:18:14.516Z,82.02
2022-12-08T19:23:16.222Z,81.58
2022-12-08T19:28:17.970Z,81.89
2022-12-08T19:33:20.084Z,82.22
2022-12-08T19:38:21.810Z,82.70
2022-12-08T19:43:42.122Z,81.58
2022-12-08T19:48:44.160Z,81.20
2022-12-08T19:53:47.805Z,81.47
2022-12-08T19:58:49.768Z,80.90
2022-12-08T20:03:51.455Z,80.62
2022-12-08T20:08:54.168Z,81.27
2022-12-08T20:13:56.306Z,81.40
2022-12-08T20:18:58.118Z,80.95
2022-12-08T20:23:59.838Z,82.30
2022-12-08T20:29:01.576Z,81.85
2022-12-08T20:34:03.347Z,82.77
2022-12-08T20:39:05.091Z,83.58
2022-12-08T20:44:06.945Z,84.81
2022-12-08T20:49:08.787Z,86.50
2022-12-08T20:54:11.132Z,87.17
2022-12-08T20:59:16.909Z,87.28
2022-12-08T21:04:18.952Z,87.66
2022-12-08T21:09:21.125Z,88.20
2022-12-08T21:14:23.035Z,88.05
2022-12-08T21:19:24.945Z,88.52
2022-12-08T21:24:31.989Z,88.96
2022-12-08T21:29:35.590Z,89.65
2022-12-08T21:34:37.657Z,90.95
2022-12-08T21:39:39.418Z,89.50
2022-12-08T21:44:41.189Z,90.28
2022-12-08T21:49:42.879Z,90.43
2022-12-08T21:54:44.644Z,91.01
2022-12-08T21:59:46.312Z,90.61
2022-12-08T22:04:49.839Z,90.79
2022-12-08T22:09:51.915Z,91.64
2022-12-08T22:14:53.853Z,92.24
2022-12-08T22:19:55.714Z,92.80
2022-12-08T22:24:57.644Z,92.42
2022-12-08T22:29:59.518Z,92.51
2022-12-08T22:35:01.303Z,92.50
2022-12-08T22:40:03.688Z,93.90
2022-12-08T22:45:06.286Z,93.69
2022-12-08T22:50:08.463Z,93.54
2022-12-08T22:55:10.564Z,92.05
2022-12-08T23:00:12.904Z,92.41
2022-12-08T23:05:15.279Z,93.73
2022-12-08T23:10:17.582Z,93.44
2022-12-08T23:15:19.571Z,94.50
2022-12-08T23:20:21.262Z,94.86
2022-12-08T23:25:23.018Z,95.26
2022-12-08T23:30:25.589Z,94.33
2022-12-08T23:35:27.338Z,95.31
2022-12-08T23:40:29.056Z,94.79
2022-12-08T23:45:31.313Z,94.06
2022-12-08T23:50:33.033Z,95.59
2022-12-08T23:55:34.827Z,95.79
